sensor_id;sensor_type;location;lat;lon;timestamp;pressure;altitude;pressure_sealevel;temperature
12061;BMP180;6091;51.432;6.880;2024-01-15T00:01:12;99543.00;;;24.80
12061;BMP180;6091;51.432;6.880;2024-01-15T00:03:39;99552.00;;;24.70
12061;BMP180;6091;51.432;6.880;2024-01-15T00:06:07;99541.00;;;24.70
12061;BMP180;6091;51.432;6.880;2024-01-15T00:08:34;99539.00;;;24.60
12061;BMP180;6091;51.432;6.880;2024-01-15T00:11:01;99536.00;;;24.60
12061;BMP180;6091;51.432;6.880;2024-01-15T00:13:28;99531.00;;;24.50
12061;BMP180;6091;51.432;6.880;2024-01-15T00:15:56;99533.00;;;24.50
12061;BMP180;6091;51.432;6.880;2024-01-15T00:18:23;99522.00;;;24.40
12061;BMP180;6091;51.432;6.880;2024-01-15T00:20:51;99509.00;;;24.40
12061;BMP180;6091;51.432;6.880;2024-01-15T00:23:19;99506.00;;;24.30
12061;BMP180;6091;51.432;6.880;2024-01-15T00:25:46;99511.00;;;24.20
12061;BMP180;6091;51.432;6.880;2024-01-15T00:28:15;99507.00;;;24.20
12061;BMP180;6091;51.432;6.880;2024-01-15T00:30:43;99501.00;;;24.20
12061;BMP180;6091;51.432;6.880;2024-01-15T00:33:10;99503.00;;;24.10
12061;BMP180;6091;51.432;6.880;2024-01-15T00:35:40;99503.00;;;24.10
12061;BMP180;6091;51.432;6.880;2024-01-15T00:38:07;99496.00;;;24.00
12061;BMP180;6091;51.432;6.880;2024-01-15T00:40:35;99504.00;;;24.00
12061;BMP180;6091;51.432;6.880;2024-01-15T00:43:02;99495.00;;;23.90
12061;BMP180;6091;51.432;6.880;2024-01-15T00:45:29;99492.00;;;23.90
12061;BMP180;6091;51.432;6.880;2024-01-15T00:47:56;99493.00;;;23.80
12061;BMP180;6091;51.432;6.880;2024-01-15T00:50:24;99497.00;;;23.80
12061;BMP180;6091;51.432;6.880;2024-01-15T00:52:51;99493.00;;;23.80
12061;BMP180;6091;51.432;6.880;2024-01-15T00:55:18;99497.00;;;23.70
12061;BMP180;6091;51.432;6.880;2024-01-15T00:57:50;99488.00;;;23.70
12061;BMP180;6091;51.432;6.880;2024-01-15T01:00:17;99483.00;;;23.60
12061;BMP180;6091;51.432;6.880;2024-01-15T01:02:45;99480.00;;;23.60
12061;BMP180;6091;51.432;6.880;2024-01-15T01:05:13;99477.00;;;23.60
12061;BMP180;6091;51.432;6.880;2024-01-15T01:07:40;99484.00;;;23.50
12061;BMP180;6091;51.432;6.880;2024-01-15T01:10:08;99485.00;;;23.50
12061;BMP180;6091;51.432;6.880;2024-01-15T01:12:36;99481.00;;;23.50
12061;BMP180;6091;51.432;6.880;2024-01-15T01:15:03;99480.00;;;23.40
12061;BMP180;6091;51.432;6.880;2024-01-15T01:17:31;99482.00;;;23.40
12061;BMP180;6091;51.432;6.880;2024-01-15T01:19:59;99476.00;;;23.40
12061;BMP180;6091;51.432;6.880;2024-01-15T01:22:26;99468.00;;;23.30
12061;BMP180;6091;51.432;6.880;2024-01-15T01:24:53;99468.00;;;23.30
12061;BMP180;6091;51.432;6.880;2024-01-15T01:27:23;99472.00;;;23.30
12061;BMP180;6091;51.432;6.880;2024-01-15T01:29:51;99472.00;;;23.20
12061;BMP180;6091;51.432;6.880;2024-01-15T01:32:19;99468.00;;;23.20
12061;BMP180;6091;51.432;6.880;2024-01-15T01:34:48;99471.00;;;23.20
12061;BMP180;6091;51.432;6.880;2024-01-15T01:37:16;99469.00;;;23.20
12061;BMP180;6091;51.432;6.880;2024-01-15T01:39:44;99472.00;;;23.10
12061;BMP180;6091;51.432;6.880;2024-01-15T01:42:11;99471.00;;;23.10
12061;BMP180;6091;51.432;6.880;2024-01-15T01:44:39;99469.00;;;23.10
12061;BMP180;6091;51.432;6.880;2024-01-15T01:47:06;99482.00;;;23.00
12061;BMP180;6091;51.432;6.880;2024-01-15T01:49:35;99477.00;;;23.00
12061;BMP180;6091;51.432;6.880;2024-01-15T01:52:06;99468.00;;;23.00
12061;BMP180;6091;51.432;6.880;2024-01-15T01:54:37;99472.00;;;23.00
12061;BMP180;6091;51.432;6.880;2024-01-15T01:57:08;99475.00;;;23.00
12061;BMP180;6091;51.432;6.880;2024-01-15T01:59:36;99476.00;;;22.90
12061;BMP180;6091;51.432;6.880;2024-01-15T02:02:04;99473.00;;;22.90
12061;BMP180;6091;51.432;6.880;2024-01-15T02:04:33;99478.00;;;22.90
12061;BMP180;6091;51.432;6.880;2024-01-15T02:07:00;99482.00;;;22.90
12061;BMP180;6091;51.432;6.880;2024-01-15T02:09:28;99488.00;;;22.90
12061;BMP180;6091;51.432;6.880;2024-01-15T02:11:55;99479.00;;;22.80
12061;BMP180;6091;51.432;6.880;2024-01-15T02:14:23;99482.00;;;22.80
12061;BMP180;6091;51.432;6.880;2024-01-15T02:16:50;99481.00;;;22.80
12061;BMP180;6091;51.432;6.880;2024-01-15T02:19:18;99480.00;;;22.80
12061;BMP180;6091;51.432;6.880;2024-01-15T02:21:45;99482.00;;;22.80
12061;BMP180;6091;51.432;6.880;2024-01-15T02:24:13;99486.00;;;22.80
12061;BMP180;6091;51.432;6.880;2024-01-15T02:26:40;99482.00;;;22.70
12061;BMP180;6091;51.432;6.880;2024-01-15T02:29:08;99482.00;;;22.70
12061;BMP180;6091;51.432;6.880;2024-01-15T02:31:36;99480.00;;;22.70
12061;BMP180;6091;51.432;6.880;2024-01-15T02:34:05;99484.00;;;22.60
12061;BMP180;6091;51.432;6.880;2024-01-15T02:36:32;99490.00;;;22.60
12061;BMP180;6091;51.432;6.880;2024-01-15T02:38:59;99489.00;;;22.60
12061;BMP180;6091;51.432;6.880;2024-01-15T02:41:27;99482.00;;;22.60
12061;BMP180;6091;51.432;6.880;2024-01-15T02:43:54;99482.00;;;22.60
12061;BMP180;6091;51.432;6.880;2024-01-15T02:46:22;99480.00;;;22.60
12061;BMP180;6091;51.432;6.880;2024-01-15T02:48:49;99477.00;;;22.60
12061;BMP180;6091;51.432;6.880;2024-01-15T02:51:16;99474.00;;;22.50
12061;BMP180;6091;51.432;6.880;2024-01-15T02:53:44;99482.00;;;22.50
12061;BMP180;6091;51.432;6.880;2024-01-15T02:56:11;99472.00;;;22.50
12061;BMP180;6091;51.432;6.880;2024-01-15T02:58:38;99470.00;;;22.50
12061;BMP180;6091;51.432;6.880;2024-01-15T03:01:05;99464.00;;;22.50
12061;BMP180;6091;51.432;6.880;2024-01-15T03:03:34;99468.00;;;22.40
12061;BMP180;6091;51.432;6.880;2024-01-15T03:06:02;99456.00;;;22.40
12061;BMP180;6091;51.432;6.880;2024-01-15T03:08:32;99469.00;;;22.40
12061;BMP180;6091;51.432;6.880;2024-01-15T03:10:59;99464.00;;;22.40
12061;BMP180;6091;51.432;6.880;2024-01-15T03:13:26;99463.00;;;22.40
12061;BMP180;6091;51.432;6.880;2024-01-15T03:15:53;99461.00;;;22.40
12061;BMP180;6091;51.432;6.880;2024-01-15T03:18:21;99465.00;;;22.30
12061;BMP180;6091;51.432;6.880;2024-01-15T03:20:48;99462.00;;;22.30
12061;BMP180;6091;51.432;6.880;2024-01-15T03:23:15;99463.00;;;22.30
12061;BMP180;6091;51.432;6.880;2024-01-15T03:25:42;99462.00;;;22.30
12061;BMP180;6091;51.432;6.880;2024-01-15T03:28:11;99462.00;;;22.30
12061;BMP180;6091;51.432;6.880;2024-01-15T03:30:40;99459.00;;;22.30
12061;BMP180;6091;51.432;6.880;2024-01-15T03:33:07;99458.00;;;22.20
12061;BMP180;6091;51.432;6.880;2024-01-15T03:35:34;99457.00;;;22.20
12061;BMP180;6091;51.432;6.880;2024-01-15T03:38:01;99465.00;;;22.20
12061;BMP180;6091;51.432;6.880;2024-01-15T03:40:28;99460.00;;;22.20
12061;BMP180;6091;51.432;6.880;2024-01-15T03:42:56;99459.00;;;22.20
12061;BMP180;6091;51.432;6.880;2024-01-15T03:45:23;99455.00;;;22.20
12061;BMP180;6091;51.432;6.880;2024-01-15T03:47:50;99466.00;;;22.10
12061;BMP180;6091;51.432;6.880;2024-01-15T03:50:18;99456.00;;;22.10
12061;BMP180;6091;51.432;6.880;2024-01-15T03:52:45;99457.00;;;22.10
12061;BMP180;6091;51.432;6.880;2024-01-15T03:55:12;99459.00;;;22.10
12061;BMP180;6091;51.432;6.880;2024-01-15T03:57:39;99456.00;;;22.10
12061;BMP180;6091;51.432;6.880;2024-01-15T04:00:07;99458.00;;;22.00
12061;BMP180;6091;51.432;6.880;2024-01-15T04:02:35;99453.00;;;22.00
12061;BMP180;6091;51.432;6.880;2024-01-15T04:05:02;99454.00;;;22.00
12061;BMP180;6091;51.432;6.880;2024-01-15T04:07:30;99436.00;;;22.00
12061;BMP180;6091;51.432;6.880;2024-01-15T04:09:57;99436.00;;;22.00
12061;BMP180;6091;51.432;6.880;2024-01-15T04:12:24;99433.00;;;22.00
12061;BMP180;6091;51.432;6.880;2024-01-15T04:14:51;99433.00;;;22.00
12061;BMP180;6091;51.432;6.880;2024-01-15T04:17:18;99429.00;;;21.90
12061;BMP180;6091;51.432;6.880;2024-01-15T04:19:45;99431.00;;;21.90
12061;BMP180;6091;51.432;6.880;2024-01-15T04:22:14;99425.00;;;21.90
12061;BMP180;6091;51.432;6.880;2024-01-15T04:24:41;99422.00;;;21.90
12061;BMP180;6091;51.432;6.880;2024-01-15T04:27:08;99426.00;;;21.90
12061;BMP180;6091;51.432;6.880;2024-01-15T04:29:38;99413.00;;;21.90
12061;BMP180;6091;51.432;6.880;2024-01-15T04:32:07;99418.00;;;21.80
12061;BMP180;6091;51.432;6.880;2024-01-15T04:34:34;99413.00;;;21.80
12061;BMP180;6091;51.432;6.880;2024-01-15T04:37:02;99410.00;;;21.80
12061;BMP180;6091;51.432;6.880;2024-01-15T04:39:29;99408.00;;;21.80
12061;BMP180;6091;51.432;6.880;2024-01-15T04:41:56;99413.00;;;21.80
12061;BMP180;6091;51.432;6.880;2024-01-15T04:44:23;99407.00;;;21.70
12061;BMP180;6091;51.432;6.880;2024-01-15T04:46:50;99409.00;;;21.70
12061;BMP180;6091;51.432;6.880;2024-01-15T04:49:18;99415.00;;;21.70
12061;BMP180;6091;51.432;6.880;2024-01-15T04:51:45;99409.00;;;21.70
12061;BMP180;6091;51.432;6.880;2024-01-15T04:54:13;99411.00;;;21.70
12061;BMP180;6091;51.432;6.880;2024-01-15T04:56:44;99394.00;;;21.70
12061;BMP180;6091;51.432;6.880;2024-01-15T04:59:13;99401.00;;;21.70
12061;BMP180;6091;51.432;6.880;2024-01-15T05:01:41;99397.00;;;21.70
12061;BMP180;6091;51.432;6.880;2024-01-15T05:04:08;99390.00;;;21.70
12061;BMP180;6091;51.432;6.880;2024-01-15T05:06:36;99397.00;;;21.60
12061;BMP180;6091;51.432;6.880;2024-01-15T05:09:04;99386.00;;;21.60
12061;BMP180;6091;51.432;6.880;2024-01-15T05:11:31;99389.00;;;21.60
12061;BMP180;6091;51.432;6.880;2024-01-15T05:13:58;99383.00;;;21.60
12061;BMP180;6091;51.432;6.880;2024-01-15T05:16:25;99389.00;;;21.60
12061;BMP180;6091;51.432;6.880;2024-01-15T05:18:52;99385.00;;;21.60
12061;BMP180;6091;51.432;6.880;2024-01-15T05:21:20;99382.00;;;21.60
12061;BMP180;6091;51.432;6.880;2024-01-15T05:23:47;99379.00;;;21.50
12061;BMP180;6091;51.432;6.880;2024-01-15T05:26:14;99380.00;;;21.50
12061;BMP180;6091;51.432;6.880;2024-01-15T05:28:42;99370.00;;;21.50
12061;BMP180;6091;51.432;6.880;2024-01-15T05:31:10;99375.00;;;21.50
12061;BMP180;6091;51.432;6.880;2024-01-15T05:33:38;99376.00;;;21.50
12061;BMP180;6091;51.432;6.880;2024-01-15T05:36:06;99370.00;;;21.50
12061;BMP180;6091;51.432;6.880;2024-01-15T05:38:33;99366.00;;;21.50
12061;BMP180;6091;51.432;6.880;2024-01-15T05:41:00;99364.00;;;21.50
12061;BMP180;6091;51.432;6.880;2024-01-15T05:43:27;99366.00;;;21.40
12061;BMP180;6091;51.432;6.880;2024-01-15T05:45:54;99362.00;;;21.40
12061;BMP180;6091;51.432;6.880;2024-01-15T05:48:22;99360.00;;;21.40
12061;BMP180;6091;51.432;6.880;2024-01-15T05:50:49;99368.00;;;21.40
12061;BMP180;6091;51.432;6.880;2024-01-15T05:53:17;99363.00;;;21.40
12061;BMP180;6091;51.432;6.880;2024-01-15T05:55:47;99354.00;;;21.40
12061;BMP180;6091;51.432;6.880;2024-01-15T05:58:14;99359.00;;;21.40
12061;BMP180;6091;51.432;6.880;2024-01-15T06:00:41;99356.00;;;21.40
12061;BMP180;6091;51.432;6.880;2024-01-15T06:03:08;99367.00;;;21.40
12061;BMP180;6091;51.432;6.880;2024-01-15T06:05:36;99370.00;;;21.40
12061;BMP180;6091;51.432;6.880;2024-01-15T06:08:03;99366.00;;;21.50
12061;BMP180;6091;51.432;6.880;2024-01-15T06:10:30;99370.00;;;21.80
12061;BMP180;6091;51.432;6.880;2024-01-15T06:12:57;99367.00;;;22.10
12061;BMP180;6091;51.432;6.880;2024-01-15T06:15:24;99362.00;;;22.60
12061;BMP180;6091;51.432;6.880;2024-01-15T06:17:51;99364.00;;;23.00
12061;BMP180;6091;51.432;6.880;2024-01-15T06:20:19;99370.00;;;23.40
12061;BMP180;6091;51.432;6.880;2024-01-15T06:22:46;99366.00;;;23.70
12061;BMP180;6091;51.432;6.880;2024-01-15T06:25:18;99366.00;;;24.00
12061;BMP180;6091;51.432;6.880;2024-01-15T06:27:46;99374.00;;;24.30
12061;BMP180;6091;51.432;6.880;2024-01-15T06:30:14;99364.00;;;24.50
12061;BMP180;6091;51.432;6.880;2024-01-15T06:32:41;99369.00;;;24.70
12061;BMP180;6091;51.432;6.880;2024-01-15T06:35:08;99365.00;;;25.00
12061;BMP180;6091;51.432;6.880;2024-01-15T06:37:37;99363.00;;;25.20
12061;BMP180;6091;51.432;6.880;2024-01-15T06:40:05;99355.00;;;25.40
12061;BMP180;6091;51.432;6.880;2024-01-15T06:42:33;99361.00;;;25.60
12061;BMP180;6091;51.432;6.880;2024-01-15T06:45:00;99364.00;;;25.80
12061;BMP180;6091;51.432;6.880;2024-01-15T06:47:27;99365.00;;;26.00
12061;BMP180;6091;51.432;6.880;2024-01-15T06:49:54;99376.00;;;26.10
12061;BMP180;6091;51.432;6.880;2024-01-15T06:52:21;99367.00;;;26.30
12061;BMP180;6091;51.432;6.880;2024-01-15T06:54:49;99374.00;;;26.40
12061;BMP180;6091;51.432;6.880;2024-01-15T06:57:16;99372.00;;;26.50
12061;BMP180;6091;51.432;6.880;2024-01-15T06:59:44;99375.00;;;26.60
12061;BMP180;6091;51.432;6.880;2024-01-15T07:02:11;99378.00;;;26.80
12061;BMP180;6091;51.432;6.880;2024-01-15T07:04:39;99371.00;;;26.90
12061;BMP180;6091;51.432;6.880;2024-01-15T07:07:09;99383.00;;;26.90
12061;BMP180;6091;51.432;6.880;2024-01-15T07:09:36;99382.00;;;27.00
12061;BMP180;6091;51.432;6.880;2024-01-15T07:12:05;99382.00;;;27.10
12061;BMP180;6091;51.432;6.880;2024-01-15T07:14:32;99388.00;;;27.20
12061;BMP180;6091;51.432;6.880;2024-01-15T07:16:59;99392.00;;;27.30
12061;BMP180;6091;51.432;6.880;2024-01-15T07:19:27;99384.00;;;27.30
12061;BMP180;6091;51.432;6.880;2024-01-15T07:21:54;99388.00;;;27.40
12061;BMP180;6091;51.432;6.880;2024-01-15T07:24:23;99388.00;;;27.50
12061;BMP180;6091;51.432;6.880;2024-01-15T07:26:50;99381.00;;;27.50
12061;BMP180;6091;51.432;6.880;2024-01-15T07:29:17;99383.00;;;27.50
12061;BMP180;6091;51.432;6.880;2024-01-15T07:31:51;99377.00;;;27.90
12061;BMP180;6091;51.432;6.880;2024-01-15T07:34:19;99380.00;;;27.70
12061;BMP180;6091;51.432;6.880;2024-01-15T07:36:46;99390.00;;;27.70
12061;BMP180;6091;51.432;6.880;2024-01-15T07:39:13;99388.00;;;27.80
12061;BMP180;6091;51.432;6.880;2024-01-15T07:41:41;99383.00;;;27.80
12061;BMP180;6091;51.432;6.880;2024-01-15T07:44:08;99373.00;;;27.80
12061;BMP180;6091;51.432;6.880;2024-01-15T07:46:35;99381.00;;;27.90
12061;BMP180;6091;51.432;6.880;2024-01-15T07:49:02;99382.00;;;27.90
12061;BMP180;6091;51.432;6.880;2024-01-15T07:51:31;99374.00;;;28.00
12061;BMP180;6091;51.432;6.880;2024-01-15T07:53:59;99384.00;;;28.00
12061;BMP180;6091;51.432;6.880;2024-01-15T07:56:26;99390.00;;;28.00
12061;BMP180;6091;51.432;6.880;2024-01-15T07:58:54;99384.00;;;28.00
12061;BMP180;6091;51.432;6.880;2024-01-15T08:01:21;99386.00;;;28.00
12061;BMP180;6091;51.432;6.880;2024-01-15T08:03:48;99386.00;;;28.00
12061;BMP180;6091;51.432;6.880;2024-01-15T08:06:16;99389.00;;;27.90
12061;BMP180;6091;51.432;6.880;2024-01-15T08:08:43;99381.00;;;27.90
12061;BMP180;6091;51.432;6.880;2024-01-15T08:11:11;99372.00;;;28.00
12061;BMP180;6091;51.432;6.880;2024-01-15T08:13:38;99374.00;;;27.90
12061;BMP180;6091;51.432;6.880;2024-01-15T08:16:05;99378.00;;;27.80
12061;BMP180;6091;51.432;6.880;2024-01-15T08:18:33;99377.00;;;27.80
12061;BMP180;6091;51.432;6.880;2024-01-15T08:21:00;99372.00;;;27.70
12061;BMP180;6091;51.432;6.880;2024-01-15T08:23:27;99371.00;;;27.60
12061;BMP180;6091;51.432;6.880;2024-01-15T08:25:58;99373.00;;;27.50
12061;BMP180;6091;51.432;6.880;2024-01-15T08:28:25;99376.00;;;27.50
12061;BMP180;6091;51.432;6.880;2024-01-15T08:30:52;99375.00;;;27.80
12061;BMP180;6091;51.432;6.880;2024-01-15T08:33:19;99379.00;;;27.50
12061;BMP180;6091;51.432;6.880;2024-01-15T08:35:48;99374.00;;;27.40
12061;BMP180;6091;51.432;6.880;2024-01-15T08:38:15;99384.00;;;27.50
12061;BMP180;6091;51.432;6.880;2024-01-15T08:40:44;99381.00;;;27.50
12061;BMP180;6091;51.432;6.880;2024-01-15T08:43:12;99379.00;;;27.60
12061;BMP180;6091;51.432;6.880;2024-01-15T08:45:39;99390.00;;;27.60
12061;BMP180;6091;51.432;6.880;2024-01-15T08:48:07;99390.00;;;27.70
12061;BMP180;6091;51.432;6.880;2024-01-15T08:50:34;99400.00;;;27.70
12061;BMP180;6091;51.432;6.880;2024-01-15T08:53:01;99402.00;;;27.80
12061;BMP180;6091;51.432;6.880;2024-01-15T08:55:29;99406.00;;;27.80
12061;BMP180;6091;51.432;6.880;2024-01-15T08:57:57;99407.00;;;28.10
12061;BMP180;6091;51.432;6.880;2024-01-15T09:00:25;99414.00;;;28.00
12061;BMP180;6091;51.432;6.880;2024-01-15T09:02:52;99413.00;;;28.00
12061;BMP180;6091;51.432;6.880;2024-01-15T09:05:19;99423.00;;;28.30
12061;BMP180;6091;51.432;6.880;2024-01-15T09:07:47;99421.00;;;28.10
12061;BMP180;6091;51.432;6.880;2024-01-15T09:10:15;99420.00;;;28.10
12061;BMP180;6091;51.432;6.880;2024-01-15T09:12:42;99420.00;;;28.40
12061;BMP180;6091;51.432;6.880;2024-01-15T09:15:10;99418.00;;;28.10
12061;BMP180;6091;51.432;6.880;2024-01-15T09:17:41;99416.00;;;28.30
12061;BMP180;6091;51.432;6.880;2024-01-15T09:20:09;99419.00;;;28.10
12061;BMP180;6091;51.432;6.880;2024-01-15T09:22:40;99414.00;;;28.00
12061;BMP180;6091;51.432;6.880;2024-01-15T09:25:09;99415.00;;;27.90
12061;BMP180;6091;51.432;6.880;2024-01-15T09:27:37;99414.00;;;27.80
12061;BMP180;6091;51.432;6.880;2024-01-15T09:30:06;99415.00;;;27.70
12061;BMP180;6091;51.432;6.880;2024-01-15T09:32:35;99409.00;;;27.70
12061;BMP180;6091;51.432;6.880;2024-01-15T09:35:03;99421.00;;;27.60
12061;BMP180;6091;51.432;6.880;2024-01-15T09:37:32;99417.00;;;27.60
12061;BMP180;6091;51.432;6.880;2024-01-15T09:40:14;99421.00;;;27.50
12061;BMP180;6091;51.432;6.880;2024-01-15T09:42:43;99422.00;;;27.50
12061;BMP180;6091;51.432;6.880;2024-01-15T09:45:12;99420.00;;;27.50
12061;BMP180;6091;51.432;6.880;2024-01-15T09:47:41;99421.00;;;27.40
12061;BMP180;6091;51.432;6.880;2024-01-15T09:50:13;99424.00;;;27.40
12061;BMP180;6091;51.432;6.880;2024-01-15T09:52:54;99421.00;;;27.40
12061;BMP180;6091;51.432;6.880;2024-01-15T09:55:27;99419.00;;;27.30
12061;BMP180;6091;51.432;6.880;2024-01-15T09:57:56;99424.00;;;27.30
12061;BMP180;6091;51.432;6.880;2024-01-15T10:00:26;99423.00;;;27.30
12061;BMP180;6091;51.432;6.880;2024-01-15T10:02:54;99424.00;;;27.30
12061;BMP180;6091;51.432;6.880;2024-01-15T10:05:21;99427.00;;;27.40
12061;BMP180;6091;51.432;6.880;2024-01-15T10:07:49;99424.00;;;27.50
12061;BMP180;6091;51.432;6.880;2024-01-15T10:10:17;99421.00;;;27.50
12061;BMP180;6091;51.432;6.880;2024-01-15T10:12:44;99415.00;;;27.60
12061;BMP180;6091;51.432;6.880;2024-01-15T10:15:12;99416.00;;;27.60
12061;BMP180;6091;51.432;6.880;2024-01-15T10:17:41;99412.00;;;27.90
12061;BMP180;6091;51.432;6.880;2024-01-15T10:20:11;99410.00;;;27.90
12061;BMP180;6091;51.432;6.880;2024-01-15T10:22:45;99408.00;;;28.10
12061;BMP180;6091;51.432;6.880;2024-01-15T10:25:15;99399.00;;;28.00
12061;BMP180;6091;51.432;6.880;2024-01-15T10:28:03;99407.00;;;27.90
12061;BMP180;6091;51.432;6.880;2024-01-15T10:30:32;99408.00;;;27.90
12061;BMP180;6091;51.432;6.880;2024-01-15T10:33:03;99415.00;;;27.80
12061;BMP180;6091;51.432;6.880;2024-01-15T10:35:33;99416.00;;;27.60
12061;BMP180;6091;51.432;6.880;2024-01-15T10:38:01;99410.00;;;27.50
12061;BMP180;6091;51.432;6.880;2024-01-15T10:40:29;99411.00;;;27.30
12061;BMP180;6091;51.432;6.880;2024-01-15T10:42:57;99413.00;;;27.60
12061;BMP180;6091;51.432;6.880;2024-01-15T10:45:24;99414.00;;;27.30
12061;BMP180;6091;51.432;6.880;2024-01-15T10:47:53;99414.00;;;27.20
12061;BMP180;6091;51.432;6.880;2024-01-15T10:50:22;99416.00;;;27.50
12061;BMP180;6091;51.432;6.880;2024-01-15T10:52:50;99418.00;;;27.20
12061;BMP180;6091;51.432;6.880;2024-01-15T10:55:23;99414.00;;;27.10
12061;BMP180;6091;51.432;6.880;2024-01-15T10:57:52;99402.00;;;27.00
12061;BMP180;6091;51.432;6.880;2024-01-15T11:00:21;99404.00;;;27.00
12061;BMP180;6091;51.432;6.880;2024-01-15T11:02:48;99401.00;;;27.00
12061;BMP180;6091;51.432;6.880;2024-01-15T11:05:15;99414.00;;;27.00
12061;BMP180;6091;51.432;6.880;2024-01-15T11:07:45;99411.00;;;27.10
12061;BMP180;6091;51.432;6.880;2024-01-15T11:10:41;99414.00;;;27.20
12061;BMP180;6091;51.432;6.880;2024-01-15T11:13:13;99420.00;;;27.20
12061;BMP180;6091;51.432;6.880;2024-01-15T11:16:02;99417.00;;;27.30
12061;BMP180;6091;51.432;6.880;2024-01-15T11:18:43;99415.00;;;27.40
12061;BMP180;6091;51.432;6.880;2024-01-15T11:21:28;99416.00;;;27.40
12061;BMP180;6091;51.432;6.880;2024-01-15T11:24:01;99423.00;;;27.50
12061;BMP180;6091;51.432;6.880;2024-01-15T11:29:33;99415.00;;;27.60
12061;BMP180;6091;51.432;6.880;2024-01-15T11:32:09;99417.00;;;27.60
12061;BMP180;6091;51.432;6.880;2024-01-15T11:34:59;99420.00;;;27.60
12061;BMP180;6091;51.432;6.880;2024-01-15T11:43:00;99414.00;;;27.60
12061;BMP180;6091;51.432;6.880;2024-01-15T11:45:30;99416.00;;;27.60
12061;BMP180;6091;51.432;6.880;2024-01-15T11:48:12;99419.00;;;27.50
12061;BMP180;6091;51.432;6.880;2024-01-15T11:50:47;99425.00;;;27.50
12061;BMP180;6091;51.432;6.880;2024-01-15T11:53:43;99414.00;;;27.40
12061;BMP180;6091;51.432;6.880;2024-01-15T11:56:16;99414.00;;;27.40
12061;BMP180;6091;51.432;6.880;2024-01-15T11:58:46;99416.00;;;27.30
12061;BMP180;6091;51.432;6.880;2024-01-15T12:01:14;99415.00;;;27.30
12061;BMP180;6091;51.432;6.880;2024-01-15T12:03:41;99414.00;;;27.20
12061;BMP180;6091;51.432;6.880;2024-01-15T12:06:09;99414.00;;;27.20
12061;BMP180;6091;51.432;6.880;2024-01-15T12:08:37;99415.00;;;27.20
12061;BMP180;6091;51.432;6.880;2024-01-15T12:11:13;99418.00;;;27.10
12061;BMP180;6091;51.432;6.880;2024-01-15T12:13:43;99418.00;;;27.00
12061;BMP180;6091;51.432;6.880;2024-01-15T12:16:11;99413.00;;;27.00
12061;BMP180;6091;51.432;6.880;2024-01-15T12:18:41;99416.00;;;27.00
12061;BMP180;6091;51.432;6.880;2024-01-15T12:21:09;99403.00;;;27.00
12061;BMP180;6091;51.432;6.880;2024-01-15T12:23:37;99406.00;;;27.00
12061;BMP180;6091;51.432;6.880;2024-01-15T12:26:04;99406.00;;;27.00
12061;BMP180;6091;51.432;6.880;2024-01-15T12:28:31;99404.00;;;27.10
12061;BMP180;6091;51.432;6.880;2024-01-15T12:30:58;99406.00;;;27.10
12061;BMP180;6091;51.432;6.880;2024-01-15T12:33:27;99403.00;;;27.20
12061;BMP180;6091;51.432;6.880;2024-01-15T12:35:55;99409.00;;;27.30
12061;BMP180;6091;51.432;6.880;2024-01-15T12:38:23;99413.00;;;27.40
12061;BMP180;6091;51.432;6.880;2024-01-15T12:40:50;99417.00;;;27.50
12061;BMP180;6091;51.432;6.880;2024-01-15T12:43:18;99429.00;;;27.50
12061;BMP180;6091;51.432;6.880;2024-01-15T12:45:46;99411.00;;;27.60
12061;BMP180;6091;51.432;6.880;2024-01-15T12:48:14;99417.00;;;27.60
12061;BMP180;6091;51.432;6.880;2024-01-15T12:50:45;99420.00;;;27.60
12061;BMP180;6091;51.432;6.880;2024-01-15T12:53:12;99422.00;;;27.60
12061;BMP180;6091;51.432;6.880;2024-01-15T12:55:39;99429.00;;;27.60
12061;BMP180;6091;51.432;6.880;2024-01-15T12:58:06;99430.00;;;27.60
12061;BMP180;6091;51.432;6.880;2024-01-15T13:00:34;99426.00;;;27.60
12061;BMP180;6091;51.432;6.880;2024-01-15T13:03:02;99431.00;;;27.50
12061;BMP180;6091;51.432;6.880;2024-01-15T13:05:32;99431.00;;;27.50
12061;BMP180;6091;51.432;6.880;2024-01-15T13:08:01;99434.00;;;27.40
12061;BMP180;6091;51.432;6.880;2024-01-15T13:10:31;99433.00;;;27.40
12061;BMP180;6091;51.432;6.880;2024-01-15T13:12:58;99437.00;;;27.30
12061;BMP180;6091;51.432;6.880;2024-01-15T13:15:26;99437.00;;;27.30
12061;BMP180;6091;51.432;6.880;2024-01-15T13:17:53;99443.00;;;27.20
12061;BMP180;6091;51.432;6.880;2024-01-15T13:20:21;99444.00;;;27.20
12061;BMP180;6091;51.432;6.880;2024-01-15T13:22:50;99435.00;;;27.10
12061;BMP180;6091;51.432;6.880;2024-01-15T13:25:17;99437.00;;;27.10
12061;BMP180;6091;51.432;6.880;2024-01-15T13:27:45;99440.00;;;27.10
12061;BMP180;6091;51.432;6.880;2024-01-15T13:30:13;99432.00;;;27.00
12061;BMP180;6091;51.432;6.880;2024-01-15T13:32:40;99442.00;;;27.00
12061;BMP180;6091;51.432;6.880;2024-01-15T13:35:08;99444.00;;;27.00
12061;BMP180;6091;51.432;6.880;2024-01-15T13:37:39;99457.00;;;27.00
12061;BMP180;6091;51.432;6.880;2024-01-15T13:40:09;99449.00;;;27.00
12061;BMP180;6091;51.432;6.880;2024-01-15T13:42:36;99450.00;;;27.10
12061;BMP180;6091;51.432;6.880;2024-01-15T13:45:07;99454.00;;;27.10
12061;BMP180;6091;51.432;6.880;2024-01-15T13:47:35;99455.00;;;27.20
12061;BMP180;6091;51.432;6.880;2024-01-15T13:50:04;99459.00;;;27.30
12061;BMP180;6091;51.432;6.880;2024-01-15T13:52:31;99455.00;;;27.30
12061;BMP180;6091;51.432;6.880;2024-01-15T13:54:58;99457.00;;;27.30
12061;BMP180;6091;51.432;6.880;2024-01-15T13:57:26;99461.00;;;27.40
12061;BMP180;6091;51.432;6.880;2024-01-15T13:59:53;99467.00;;;27.50
12061;BMP180;6091;51.432;6.880;2024-01-15T14:02:21;99468.00;;;27.50
12061;BMP180;6091;51.432;6.880;2024-01-15T14:04:50;99470.00;;;27.50
12061;BMP180;6091;51.432;6.880;2024-01-15T14:07:18;99473.00;;;27.50
12061;BMP180;6091;51.432;6.880;2024-01-15T14:09:45;99475.00;;;27.50
12061;BMP180;6091;51.432;6.880;2024-01-15T14:12:13;99477.00;;;27.40
12061;BMP180;6091;51.432;6.880;2024-01-15T14:14:41;99481.00;;;27.40
12061;BMP180;6091;51.432;6.880;2024-01-15T14:17:08;99489.00;;;27.40
12061;BMP180;6091;51.432;6.880;2024-01-15T14:19:37;99501.00;;;27.30
12061;BMP180;6091;51.432;6.880;2024-01-15T14:22:05;99497.00;;;27.20
12061;BMP180;6091;51.432;6.880;2024-01-15T14:24:32;99510.00;;;27.20
12061;BMP180;6091;51.432;6.880;2024-01-15T14:27:00;99518.00;;;27.10
12061;BMP180;6091;51.432;6.880;2024-01-15T14:29:27;99506.00;;;27.00
12061;BMP180;6091;51.432;6.880;2024-01-15T14:31:56;99508.00;;;26.90
12061;BMP180;6091;51.432;6.880;2024-01-15T14:34:24;99517.00;;;26.90
12061;BMP180;6091;51.432;6.880;2024-01-15T14:36:52;99512.00;;;27.20